Terminal Aerodrome Forecast
Issued by NWS

Current Version | Previous Version | Graphics & Text | Print | Product List | Glossary On
Versions: 1 2 3 4 5 6 7 8 9 10 11 12 13 14 15 16 17 18 19 20 21 22
000
FTUS41 KRLX 180500
TAFCKB
TAF
KCKB 180525Z 1806/1906 00000KT 6SM BR BKN050
     FM180800 00000KT 3SM BR SCT003
     FM180900 00000KT 1/2SM FG OVC003
     FM181400 00000KT 4SM BR SCT030
     FM181500 00000KT P6SM SCT050
     FM182200 VRB03KT P6SM SCT140=

USA.gov is the U.S. government's official web portal to all federal, state and local government web resources and services.